Time;durP1;ratioP1;P1;durP2;ratioP2;P2;SDS_P1;SDS_P2;PMS_P1;PMS_P2;Temp;Humidity;BMP_temperature;BMP_pressure;BME280_temperature;BME280_humidity;BME280_pressure;Samples;Min_cycle;Max_cycle;Signal;HPM_P1;HPM_P2
2022/03/29 00:01:01;;;;;;;27.05;15.50;;;;;;;10.01;77.59;100786.25;5028360;28;20129;-74
2022/03/29 00:03:27;;;;;;;30.90;15.57;;;;;;;10.06;77.17;100781.28;5013932;28;20041;-75
2022/03/29 00:05:52;;;;;;;27.02;16.02;;;;;;;9.87;77.26;100770.16;5014477;28;20034;-74
2022/03/29 00:08:18;;;;;;;21.55;15.10;;;;;;;9.92;77.22;100778.09;5013884;28;20486;-74
2022/03/29 00:10:45;;;;;;;23.80;15.88;;;;;;;9.91;77.65;100776.34;5013871;28;20030;-71
2022/03/29 00:13:11;;;;;;;22.45;15.85;;;;;;;9.82;78.00;100776.81;5013938;28;20034;-74
2022/03/29 00:22:20;;;;;;;26.58;16.38;;;;;;;9.65;79.63;100758.00;5012938;28;20103;-73
2022/03/29 00:24:46;;;;;;;39.00;23.15;;;;;;;9.43;79.04;100701.13;5013312;28;20026;-73
2022/03/29 00:27:11;;;;;;;53.60;36.25;;;;;;;9.73;78.94;100745.44;5018281;28;20030;-74
2022/03/29 00:29:37;;;;;;;27.67;17.42;;;;;;;9.69;79.03;100744.44;5015395;28;20057;-75
2022/03/29 00:32:04;;;;;;;30.40;16.52;;;;;;;9.40;79.15;100704.47;5012992;28;20401;-75
2022/03/29 00:34:29;;;;;;;26.95;15.73;;;;;;;9.67;78.91;100745.16;5012640;28;20033;-75
2022/03/29 00:36:55;;;;;;;23.70;15.70;;;;;;;9.47;79.56;100736.53;5012736;28;20034;-74
2022/03/29 00:39:20;;;;;;;24.40;15.65;;;;;;;9.42;80.04;100746.66;5012771;28;20053;-75
2022/03/29 00:41:46;;;;;;;26.52;15.43;;;;;;;9.53;79.55;100739.38;5013022;28;20049;-72
2022/03/29 00:44:15;;;;;;;27.73;14.73;;;;;;;9.54;79.09;100723.13;5012781;28;20026;-74
2022/03/29 00:46:40;;;;;;;26.17;16.00;;;;;;;9.56;80.02;100716.34;5012649;28;20030;-75
2022/03/29 00:49:06;;;;;;;24.17;14.55;;;;;;;9.82;79.59;100732.06;5012470;28;20030;-75
2022/03/29 00:51:31;;;;;;;26.33;15.93;;;;;;;9.84;79.47;100733.03;5012114;28;20164;-74
2022/03/29 00:53:57;;;;;;;24.35;15.45;;;;;;;9.91;79.80;100735.06;5011809;28;20037;-76
2022/03/29 00:56:22;;;;;;;25.58;16.13;;;;;;;9.98;79.90;100733.63;5012399;28;20429;-75
2022/03/29 00:58:48;;;;;;;27.60;14.93;;;;;;;9.91;80.67;100734.22;5012987;28;20022;-76
2022/03/29 01:01:15;;;;;;;24.58;14.95;;;;;;;9.63;81.92;100694.28;5012512;28;20791;-74
2022/03/29 01:03:41;;;;;;;25.92;16.38;;;;;;;9.87;82.31;100722.88;5012184;28;20507;-74
2022/03/29 01:06:08;;;;;;;27.00;15.25;;;;;;;9.98;81.77;100710.41;5012263;28;20029;-73
2022/03/29 01:08:35;;;;;;;29.35;16.42;;;;;;;10.10;80.40;100705.78;5011023;28;20030;-76
2022/03/29 01:11:07;;;;;;;26.95;14.98;;;;;;;10.11;79.17;100696.38;5012503;28;20029;-75
2022/03/29 01:13:33;;;;;;;29.67;15.27;;;;;;;10.11;78.56;100702.41;5012360;28;20030;-75
2022/03/29 01:17:38;;;;;;;27.55;15.48;;;;;;;9.97;77.83;100657.06;5016525;28;20025;-73
2022/03/29 01:18:47;;;;;;;24.42;15.68;;;;;;;10.29;76.93;100694.56;5013764;28;20026;-75
2022/03/29 01:21:20;;;;;;;23.90;15.00;;;;;;;10.17;75.77;100661.38;5012081;28;20026;-75
2022/03/29 01:23:47;;;;;;;21.83;14.18;;;;;;;10.17;75.23;100656.22;5041561;28;20559;-74
2022/03/29 01:26:15;;;;;;;22.67;14.80;;;;;;;10.40;74.68;100689.88;5011805;28;20517;-75
2022/03/29 01:28:42;;;;;;;23.70;15.07;;;;;;;10.38;74.26;100685.47;5012006;28;20037;-76
2022/03/29 01:31:09;;;;;;;24.08;15.02;;;;;;;10.09;75.28;100687.69;5011894;28;20076;-76
2022/03/29 01:33:35;;;;;;;27.20;16.45;;;;;;;9.93;75.65;100668.97;5020764;28;20033;-74
2022/03/29 01:36:21;;;;;;;23.65;15.15;;;;;;;9.76;75.92;100627.00;5028846;28;20033;-75
2022/03/29 01:38:46;;;;;;;23.80;15.32;;;;;;;10.07;74.98;100677.31;5028670;28;20076;-75
2022/03/29 01:41:12;;;;;;;24.20;15.60;;;;;;;9.77;75.94;100674.28;5028797;28;20128;-75
2022/03/29 01:43:38;;;;;;;24.92;15.05;;;;;;;9.51;77.04;100681.75;5028971;28;20476;-75
2022/03/29 01:46:03;;;;;;;23.02;14.40;;;;;;;9.17;78.48;100686.28;5028915;28;20032;-75
2022/03/29 01:48:29;;;;;;;21.35;13.55;;;;;;;8.86;79.73;100684.84;5028755;28;20115;-73
2022/03/29 01:50:54;;;;;;;27.42;13.70;;;;;;;8.73;80.31;100672.19;5028539;28;20073;-73
2022/03/29 01:53:24;;;;;;;24.10;12.98;;;;;;;8.45;80.49;100647.69;5028245;28;20060;-75
2022/03/29 01:56:00;;;;;;;20.48;12.55;;;;;;;8.47;80.74;100664.06;5028196;28;20041;-74
2022/03/29 01:58:27;;;;;;;19.70;12.63;;;;;;;8.37;81.08;100682.41;5026837;28;20040;-75
2022/03/29 02:00:53;;;;;;;84.15;55.67;;;;;;;8.28;81.15;100669.13;5028076;28;20037;-72
2022/03/29 02:03:19;;;;;;;55.78;35.20;;;;;;;7.87;82.69;100632.81;5027257;28;20052;-74
2022/03/29 02:05:44;;;;;;;31.83;22.60;;;;;;;8.14;82.77;100681.28;5028214;28;20555;-76
2022/03/29 02:08:10;;;;;;;28.48;18.77;;;;;;;8.22;82.39;100680.88;5029642;28;20025;-74
2022/03/29 02:10:36;;;;;;;20.90;13.40;;;;;;;8.38;81.71;100669.63;5030947;28;20043;-72
2022/03/29 02:13:02;;;;;;;18.83;12.77;;;;;;;8.39;80.27;100653.38;5030242;28;20028;-73
2022/03/29 02:15:28;;;;;;;19.13;12.57;;;;;;;8.55;79.71;100662.78;5030567;28;20033;-75
2022/03/29 02:17:53;;;;;;;24.48;12.95;;;;;;;8.64;79.49;100667.47;5030368;28;20022;-72
2022/03/29 02:20:21;;;;;;;22.15;12.95;;;;;;;8.69;79.39;100673.72;5021246;28;20033;-76
2022/03/29 02:22:46;;;;;;;21.15;12.75;;;;;;;8.69;79.34;100670.28;5029327;28;20094;-74
2022/03/29 02:25:12;;;;;;;20.52;13.70;;;;;;;8.36;80.50;100654.94;5030088;28;20090;-73
2022/03/29 02:27:43;;;;;;;23.63;13.77;;;;;;;8.34;82.28;100659.13;5030712;28;20029;-75
2022/03/29 02:30:14;;;;;;;20.88;13.18;;;;;;;8.37;82.22;100659.28;5030248;28;20538;-74
2022/03/29 02:32:41;;;;;;;22.77;14.05;;;;;;;8.19;81.77;100624.13;5030705;28;20029;-74
2022/03/29 02:35:07;;;;;;;23.58;13.55;;;;;;;8.35;81.69;100663.44;5030166;28;20022;-71
2022/03/29 02:37:33;;;;;;;24.85;15.35;;;;;;;8.13;82.19;100652.13;5028375;28;20025;-74
2022/03/29 02:39:58;;;;;;;24.50;15.88;;;;;;;7.96;83.08;100656.41;5030564;28;20029;-74
2022/03/29 02:42:23;;;;;;;30.77;17.35;;;;;;;7.78;83.94;100646.09;5029973;28;20071;-75
2022/03/29 02:44:49;;;;;;;28.67;17.63;;;;;;;7.68;84.46;100629.31;5030333;28;20405;-74
2022/03/29 02:47:14;;;;;;;25.15;16.98;;;;;;;7.69;84.58;100641.34;5030387;28;20017;-74
2022/03/29 02:49:40;;;;;;;25.52;15.95;;;;;;;7.77;84.16;100629.75;5030116;28;20056;-72
2022/03/29 02:52:06;;;;;;;24.77;15.43;;;;;;;7.63;83.80;100614.44;5044060;28;20042;-72
2022/03/29 02:54:31;;;;;;;23.63;16.45;;;;;;;7.79;84.45;100647.84;5029753;28;20029;-73
2022/03/29 02:56:57;;;;;;;24.67;16.42;;;;;;;7.66;83.77;100602.63;5030281;28;20028;-74
2022/03/29 02:59:22;;;;;;;24.98;16.25;;;;;;;7.69;83.38;100595.09;5019469;28;20064;-74
2022/03/29 03:01:48;;;;;;;26.17;17.65;;;;;;;8.10;83.13;100651.97;5010778;28;20393;-74
2022/03/29 03:04:14;;;;;;;26.88;17.23;;;;;;;8.23;82.93;100649.19;4992496;28;20034;-71
2022/03/29 03:06:41;;;;;;;24.40;15.45;;;;;;;8.30;82.54;100640.09;5010185;28;20037;-74
2022/03/29 03:09:07;;;;;;;22.23;15.88;;;;;;;8.18;82.43;100612.06;5009909;28;20553;-72
2022/03/29 03:11:32;;;;;;;25.80;16.25;;;;;;;7.99;82.89;100600.00;5010032;28;20501;-72
2022/03/29 03:13:58;;;;;;;25.83;15.88;;;;;;;8.08;83.12;100625.28;5014692;28;20078;-72
2022/03/29 03:16:24;;;;;;;25.75;17.08;;;;;;;7.94;84.05;100611.75;5028907;28;20053;-73
2022/03/29 03:18:49;;;;;;;29.48;16.88;;;;;;;7.90;84.08;100628.72;5029748;28;20112;-74
2022/03/29 03:21:15;;;;;;;22.15;16.60;;;;;;;7.90;83.87;100626.13;5029717;28;20095;-74
2022/03/29 03:23:40;;;;;;;24.17;16.38;;;;;;;7.94;84.05;100637.47;5030121;28;20037;-75
2022/03/29 03:26:06;;;;;;;27.25;16.98;;;;;;;7.67;83.75;100594.13;5030074;28;20018;-72
2022/03/29 03:28:31;;;;;;;22.83;16.65;;;;;;;7.84;83.76;100628.41;5029760;28;20552;-75
2022/03/29 03:30:57;;;;;;;28.30;15.93;;;;;;;7.80;84.08;100630.72;5029770;28;20104;-74
2022/03/29 03:33:23;;;;;;;40.42;16.65;;;;;;;7.60;83.94;100623.78;5025563;28;20026;-75
2022/03/29 03:35:48;;;;;;;28.25;16.58;;;;;;;7.62;84.57;100636.69;5014112;28;20433;-73
2022/03/29 03:38:14;;;;;;;28.67;18.75;;;;;;;7.72;84.18;100633.78;5010109;28;20080;-74
2022/03/29 03:40:41;;;;;;;29.50;18.50;;;;;;;7.52;83.92;100598.50;5009817;28;20037;-74
2022/03/29 03:43:07;;;;;;;22.17;17.13;;;;;;;7.71;84.03;100623.44;5009771;28;20091;-73
2022/03/29 03:45:33;;;;;;;26.40;17.33;;;;;;;7.85;83.04;100630.19;5009735;28;20029;-72
2022/03/29 03:47:58;;;;;;;22.58;16.45;;;;;;;7.87;81.67;100638.81;5009935;28;20029;-73
2022/03/29 03:50:24;;;;;;;24.42;15.98;;;;;;;7.81;81.23;100627.38;5009161;28;20119;-72
2022/03/29 03:52:51;;;;;;;28.08;17.55;;;;;;;7.83;79.80;100626.63;5009847;28;20034;-73
2022/03/29 03:55:18;;;;;;;30.10;17.98;;;;;;;7.55;80.04;100579.00;5009651;28;20029;-72
2022/03/29 03:57:44;;;;;;;29.55;16.45;;;;;;;7.41;80.52;100592.81;5009712;28;20026;-73
2022/03/29 04:00:11;;;;;;;27.13;16.90;;;;;;;7.50;81.28;100631.81;5009296;28;20037;-71
2022/03/29 04:02:39;;;;;;;28.75;17.52;;;;;;;7.61;80.63;100642.63;5008853;28;20030;-73
2022/03/29 04:05:08;;;;;;;26.33;16.85;;;;;;;7.61;81.18;100640.97;5009207;28;20037;-76
2022/03/29 04:07:34;;;;;;;25.90;16.77;;;;;;;7.66;81.10;100648.88;5008836;28;20034;-74
2022/03/29 04:10:19;;;;;;;23.73;15.70;;;;;;;7.72;79.78;100648.34;5046546;28;20105;-75
2022/03/29 04:12:45;;;;;;;24.33;15.73;;;;;;;7.63;79.68;100632.44;5046204;28;20033;-73
2022/03/29 04:15:10;;;;;;;25.05;15.77;;;;;;;7.63;80.02;100641.03;5046044;28;20033;-74
2022/03/29 04:17:36;;;;;;;23.45;15.48;;;;;;;7.65;79.57;100648.81;5046067;28;20064;-73
2022/03/29 04:20:01;;;;;;;26.08;15.95;;;;;;;7.50;79.94;100647.25;5045091;28;20037;-73
2022/03/29 04:22:27;;;;;;;39.70;16.15;;;;;;;7.47;80.01;100641.94;5043996;28;20116;-74
2022/03/29 04:24:53;;;;;;;26.80;16.65;;;;;;;7.46;79.96;100650.44;5046409;28;20470;-73
2022/03/29 04:27:18;;;;;;;23.67;16.30;;;;;;;7.22;80.70;100614.09;5044770;28;20029;-73
2022/03/29 04:29:44;;;;;;;26.05;16.40;;;;;;;7.30;80.15;100633.31;5045292;28;20512;-72
2022/03/29 04:32:09;;;;;;;26.73;16.10;;;;;;;7.24;79.91;100638.13;5026615;28;20452;-69
2022/03/29 04:34:35;;;;;;;27.77;17.20;;;;;;;7.20;81.21;100655.09;5030912;28;20068;-69
2022/03/29 04:37:01;;;;;;;31.08;18.05;;;;;;;7.09;82.23;100658.75;5014065;28;20045;-68
2022/03/29 04:39:27;;;;;;;28.77;18.23;;;;;;;6.95;83.65;100655.44;5030745;28;20087;-70
2022/03/29 04:41:52;;;;;;;33.95;19.58;;;;;;;6.51;87.42;100610.28;5017683;28;20501;-70
2022/03/29 04:44:18;;;;;;;35.63;19.98;;;;;;;6.76;88.43;100653.53;5013314;28;20060;-69
2022/03/29 04:46:44;;;;;;;33.50;21.42;;;;;;;6.96;88.25;100660.63;5012137;28;20053;-73
2022/03/29 04:49:09;;;;;;;34.40;24.17;;;;;;;7.14;87.38;100662.47;5012458;28;20657;-70
2022/03/29 04:51:35;;;;;;;28.92;19.13;;;;;;;7.09;85.92;100663.88;5018916;28;20087;-69
2022/03/29 04:54:01;;;;;;;30.95;18.48;;;;;;;7.16;85.33;100663.41;5033392;28;20116;-71
2022/03/29 04:56:27;;;;;;;31.92;22.02;;;;;;;7.11;84.82;100645.19;5021174;28;20470;-68
2022/03/29 04:58:53;;;;;;;34.90;21.20;;;;;;;6.67;87.09;100620.56;5011798;28;20092;-68
2022/03/29 05:01:18;;;;;;;39.00;19.58;;;;;;;6.77;88.72;100661.31;5011767;28;20040;-70
2022/03/29 05:03:44;;;;;;;29.83;18.55;;;;;;;6.72;88.70;100656.75;5012460;28;20033;-71
2022/03/29 05:06:09;;;;;;;28.67;18.67;;;;;;;6.51;90.66;100656.44;5012897;28;20038;-73
2022/03/29 05:08:35;;;;;;;33.83;19.42;;;;;;;6.67;90.26;100660.72;5012314;28;20116;-69
2022/03/29 05:11:00;;;;;;;32.15;18.90;;;;;;;6.89;89.63;100663.69;5011961;28;20033;-69
2022/03/29 05:13:27;;;;;;;35.33;19.48;;;;;;;6.96;88.82;100652.06;5013671;28;20094;-71
2022/03/29 05:15:53;;;;;;;25.88;17.75;;;;;;;6.99;87.83;100659.06;5015859;28;20405;-74
2022/03/29 05:18:18;;;;;;;30.52;18.70;;;;;;;6.93;88.04;100633.94;5013145;28;20030;-75
2022/03/29 05:20:44;;;;;;;33.50;19.88;;;;;;;7.18;86.88;100666.06;5014130;28;20025;-71
2022/03/29 05:23:09;;;;;;;36.63;19.38;;;;;;;7.26;86.47;100658.00;5020254;28;20056;-71
2022/03/29 05:25:35;;;;;;;26.15;18.27;;;;;;;7.29;85.83;100644.44;5020955;28;20444;-71
2022/03/29 05:28:03;;;;;;;27.15;17.85;;;;;;;7.28;86.47;100643.53;5024139;28;20048;-69
2022/03/29 05:30:29;;;;;;;28.98;18.33;;;;;;;7.25;87.17;100640.81;5025073;28;20033;-72
2022/03/29 05:32:57;;;;;;;33.40;18.98;;;;;;;7.26;87.57;100637.44;5012295;28;20029;-75
2022/03/29 05:35:32;;;;;;;26.98;18.85;;;;;;;7.30;88.17;100633.31;5018588;28;20029;-71
2022/03/29 05:38:01;;;;;;;31.73;19.92;;;;;;;7.33;88.53;100636.06;5018458;28;20459;-71
2022/03/29 05:40:28;;;;;;;34.40;20.15;;;;;;;7.44;88.76;100640.09;5029142;28;20061;-71
2022/03/29 05:42:55;;;;;;;35.33;19.90;;;;;;;7.38;88.97;100610.63;5030541;28;20068;-71
2022/03/29 05:45:21;;;;;;;34.05;19.80;;;;;;;7.58;89.48;100640.78;5029505;28;20029;-71
2022/03/29 05:50:30;;;;;;;27.83;20.35;;;;;;;7.79;89.71;100640.16;5027506;28;20061;-73
2022/03/29 05:52:57;;;;;;;29.48;21.67;;;;;;;7.71;90.46;100629.47;5031295;28;20033;-71
2022/03/29 05:55:26;;;;;;;31.63;20.67;;;;;;;7.65;91.00;100638.53;5031266;28;20120;-73
2022/03/29 05:57:52;;;;;;;33.30;21.55;;;;;;;7.82;91.14;100637.72;5031643;28;20040;-70
2022/03/29 06:00:23;;;;;;;27.70;19.90;;;;;;;8.02;90.59;100643.84;5032034;28;20026;-71
2022/03/29 06:02:49;;;;;;;34.22;21.45;;;;;;;8.10;90.88;100641.69;5031054;28;20409;-72
2022/03/29 06:05:14;;;;;;;32.92;21.33;;;;;;;8.07;91.31;100633.81;5030456;28;20033;-69
2022/03/29 06:07:40;;;;;;;30.83;21.80;;;;;;;8.03;90.55;100632.78;5030630;28;20600;-70
2022/03/29 06:10:07;;;;;;;35.97;21.85;;;;;;;8.23;90.19;100654.31;5027268;28;20048;-71
2022/03/29 06:12:34;;;;;;;34.90;22.58;;;;;;;8.50;89.72;100650.47;5030466;28;20087;-70
2022/03/29 06:15:04;;;;;;;32.30;22.55;;;;;;;8.63;88.58;100637.41;5031218;28;20033;-70
2022/03/29 06:17:30;;;;;;;31.98;21.98;;;;;;;8.76;87.62;100633.72;5030678;28;20021;-71
2022/03/29 06:19:55;;;;;;;29.73;21.48;;;;;;;8.94;88.51;100641.41;5030804;28;20021;-73
2022/03/29 06:22:21;;;;;;;33.47;19.88;;;;;;;9.14;87.09;100629.44;5030991;28;20025;-71
2022/03/29 06:24:47;;;;;;;27.65;19.88;;;;;;;9.28;86.23;100642.06;5030545;28;20032;-70
2022/03/29 06:27:12;;;;;;;39.40;19.75;;;;;;;9.45;86.08;100638.53;5029914;28;20021;-70
2022/03/29 06:29:39;;;;;;;36.47;25.83;;;;;;;9.59;84.59;100638.28;5029033;28;20048;-73
2022/03/29 06:32:05;;;;;;;33.20;20.05;;;;;;;9.81;84.82;100634.94;5030165;28;20116;-74
2022/03/29 06:34:31;;;;;;;40.95;18.60;;;;;;;9.92;83.05;100636.28;5029564;28;20172;-71
2022/03/29 06:36:56;;;;;;;30.58;17.52;;;;;;;10.02;82.59;100632.38;5030460;28;20108;-70
2022/03/29 06:39:22;;;;;;;22.55;15.25;;;;;;;10.18;81.26;100636.44;5030325;28;20112;-73
2022/03/29 06:41:48;;;;;;;28.13;14.25;;;;;;;10.31;80.01;100614.63;5009516;28;20025;-69
2022/03/29 06:44:14;;;;;;;22.83;14.63;;;;;;;10.51;80.07;100615.44;5010428;28;20034;-73
2022/03/29 06:46:39;;;;;;;20.67;15.48;;;;;;;10.73;78.56;100605.94;5013019;28;20120;-73
2022/03/29 06:49:06;;;;;;;17.52;12.68;;;;;;;10.92;76.63;100604.97;5014845;28;20037;-72
2022/03/29 06:51:36;;;;;;;20.98;12.93;;;;;;;11.12;75.89;100590.22;5009430;28;20061;-72
2022/03/29 06:54:03;;;;;;;18.08;12.00;;;;;;;11.41;74.54;100599.00;5010051;28;20449;-73
2022/03/29 06:56:30;;;;;;;15.93;11.57;;;;;;;11.53;73.63;100602.88;5010543;28;20037;-70
2022/03/29 06:58:56;;;;;;;15.80;11.23;;;;;;;11.63;73.76;100597.19;5010228;28;20022;-74
2022/03/29 07:01:22;;;;;;;19.77;11.45;;;;;;;11.60;72.79;100558.25;5011031;28;20037;-74
2022/03/29 07:03:48;;;;;;;17.00;11.25;;;;;;;11.86;72.72;100597.94;5011328;28;20119;-75
2022/03/29 07:06:13;;;;;;;14.55;10.85;;;;;;;12.02;72.61;100598.50;5011004;28;20398;-74
2022/03/29 07:11:16;;;;;;;16.65;10.90;;;;;;;11.97;72.79;100560.44;5011222;28;20097;-75
2022/03/29 07:11:24;;;;;;;16.60;11.10;;;;;;;12.32;72.32;100577.91;5010893;28;20181;-74
2022/03/29 07:13:50;;;;;;;14.10;10.25;;;;;;;12.37;72.78;100573.75;5010854;28;20105;-75
2022/03/29 07:16:38;;;;;;;15.10;11.30;;;;;;;12.43;71.08;100558.41;5027899;28;20183;-73
2022/03/29 07:19:03;;;;;;;15.65;11.30;;;;;;;12.54;71.04;100556.16;5028133;28;20475;-72
2022/03/29 07:21:29;;;;;;;18.63;11.32;;;;;;;12.60;71.59;100548.56;5028063;28;20033;-72
2022/03/29 07:23:54;;;;;;;15.13;10.65;;;;;;;12.75;70.17;100558.50;5028148;28;20029;-72
2022/03/29 07:26:20;;;;;;;19.73;11.77;;;;;;;12.86;70.00;100555.34;5028158;28;20037;-73
2022/03/29 07:28:46;;;;;;;20.75;11.45;;;;;;;12.99;68.92;100551.41;5028151;28;20053;-71
2022/03/29 07:31:11;;;;;;;14.05;10.30;;;;;;;12.95;68.68;100524.53;5027782;28;20041;-73
2022/03/29 07:33:37;;;;;;;14.93;9.60;;;;;;;13.22;67.66;100531.28;5027906;28;20037;-75
2022/03/29 07:36:05;;;;;;;13.82;11.30;;;;;;;13.22;68.92;100518.31;5028223;28;20042;-72
2022/03/29 07:38:31;;;;;;;15.63;10.27;;;;;;;13.49;67.46;100532.91;4996090;28;20099;-72
2022/03/29 07:40:57;;;;;;;16.65;9.02;;;;;;;13.50;66.74;100524.28;5027271;28;20037;-71
2022/03/29 07:43:22;;;;;;;14.90;9.63;;;;;;;13.77;70.19;100542.28;5027101;28;20044;-75
2022/03/29 07:45:49;;;;;;;15.50;9.95;;;;;;;13.93;67.07;100540.91;5027007;28;20069;-71
2022/03/29 07:48:14;;;;;;;18.27;12.55;;;;;;;13.80;64.55;100481.78;5013635;28;20046;-76
2022/03/29 07:50:40;;;;;;;18.50;11.43;;;;;;;14.04;63.48;100487.56;5009847;28;20057;-75
2022/03/29 07:53:06;;;;;;;13.55;10.05;;;;;;;14.36;63.79;100526.34;5011914;28;20029;-76
2022/03/29 07:55:33;;;;;;;15.93;10.68;;;;;;;14.39;64.29;100529.03;5029507;28;20042;-76
2022/03/29 07:57:59;;;;;;;16.73;10.45;;;;;;;14.49;64.14;100524.91;5029656;28;20091;-77
2022/03/29 08:00:36;;;;;;;14.93;9.45;;;;;;;14.67;62.29;100513.19;5029404;28;20021;-72
2022/03/29 08:03:07;;;;;;;14.35;9.55;;;;;;;14.77;61.30;100514.25;5029085;28;20091;-77
2022/03/29 08:05:34;;;;;;;16.75;8.50;;;;;;;14.73;61.32;100500.31;5033032;28;20552;-73
2022/03/29 08:08:00;;;;;;;11.05;8.52;;;;;;;14.79;61.25;100512.53;5033001;28;20515;-76
2022/03/29 08:10:27;;;;;;;12.57;8.10;;;;;;;14.97;59.76;100506.84;5032218;28;20040;-74
2022/03/29 08:12:55;;;;;;;14.07;8.30;;;;;;;15.08;60.64;100507.03;5032736;28;20021;-74
2022/03/29 08:15:20;;;;;;;13.18;8.27;;;;;;;15.27;59.65;100498.75;5032962;28;20049;-74
2022/03/29 08:17:48;;;;;;;13.75;8.20;;;;;;;15.35;58.03;100502.38;5029427;28;20022;-75
2022/03/29 08:20:14;;;;;;;14.18;8.88;;;;;;;15.35;59.34;100491.97;5013920;28;20037;-72
2022/03/29 08:22:44;;;;;;;12.23;8.10;;;;;;;15.51;58.53;100493.09;5027426;28;20524;-76
2022/03/29 08:25:12;;;;;;;11.32;7.53;;;;;;;15.37;58.18;100456.44;5013422;28;20030;-72
2022/03/29 08:27:38;;;;;;;14.10;8.32;;;;;;;15.68;59.50;100482.09;5046160;28;20187;-74
2022/03/29 08:30:05;;;;;;;12.38;8.20;;;;;;;15.77;56.48;100491.78;5015496;28;20033;-74
2022/03/29 08:32:35;;;;;;;14.15;8.50;;;;;;;15.76;56.50;100461.38;5011846;28;20038;-72
2022/03/29 08:35:02;;;;;;;11.10;7.32;;;;;;;15.84;56.69;100472.84;5014299;28;20053;-73
2022/03/29 08:37:28;;;;;;;15.70;8.63;;;;;;;15.79;56.37;100477.94;5010889;28;20040;-75
2022/03/29 08:39:54;;;;;;;14.50;8.07;;;;;;;15.89;56.64;100478.09;5032412;28;20033;-73
2022/03/29 08:42:22;;;;;;;11.77;8.20;;;;;;;15.89;54.43;100465.97;5031533;28;20488;-74
2022/03/29 08:44:49;;;;;;;13.07;7.63;;;;;;;15.94;52.17;100461.69;5032972;28;20025;-73
2022/03/29 08:47:17;;;;;;;11.73;6.75;;;;;;;15.81;51.86;100429.38;5028697;28;20036;-72
2022/03/29 08:49:45;;;;;;;12.80;6.95;;;;;;;16.11;49.69;100458.47;5032819;28;20090;-71
2022/03/29 08:52:11;;;;;;;12.73;7.90;;;;;;;16.17;48.84;100459.44;5032314;28;20029;-74
2022/03/29 08:54:37;;;;;;;13.52;7.70;;;;;;;16.08;50.86;100446.28;5032593;28;20047;-76
2022/03/29 08:57:03;;;;;;;12.50;7.38;;;;;;;16.20;49.01;100458.59;5032727;28;20029;-74
2022/03/29 08:59:30;;;;;;;16.92;8.90;;;;;;;16.26;44.88;100450.88;5032423;28;20043;-75
2022/03/29 09:01:57;;;;;;;11.75;7.30;;;;;;;16.27;44.36;100446.53;5032578;28;20026;-74
2022/03/29 09:04:24;;;;;;;9.73;7.07;;;;;;;16.24;44.77;100444.75;5032597;28;20029;-72
2022/03/29 09:06:58;;;;;;;17.00;7.63;;;;;;;16.24;45.53;100443.91;5032488;28;20040;-74
2022/03/29 09:09:34;;;;;;;10.65;6.75;;;;;;;16.21;44.88;100438.63;5032312;28;20052;-72
2022/03/29 09:12:11;;;;;;;12.00;6.80;;;;;;;16.26;43.45;100424.81;5032294;28;20409;-75
2022/03/29 09:14:59;;;;;;;9.13;6.38;;;;;;;16.28;44.33;100430.03;5013208;28;20416;-74
2022/03/29 09:17:35;;;;;;;11.82;7.63;;;;;;;16.23;44.25;100424.78;5031753;28;20025;-73
2022/03/29 09:20:24;;;;;;;11.07;6.88;;;;;;;16.37;44.20;100416.25;5032157;28;20021;-74
2022/03/29 09:22:51;;;;;;;10.27;6.53;;;;;;;16.48;44.38;100420.72;5009838;28;20068;-74
2022/03/29 09:25:36;;;;;;;11.25;6.60;;;;;;;16.54;43.29;100398.22;5009836;28;20037;-74
2022/03/29 09:28:06;;;;;;;18.10;7.35;;;;;;;16.74;44.26;100416.69;5009495;28;20038;-74
2022/03/29 09:30:47;;;;;;;9.52;6.65;;;;;;;16.90;42.26;100405.56;5009527;28;20026;-74
2022/03/29 09:33:18;;;;;;;12.52;7.45;;;;;;;16.74;42.43;100367.16;5009605;28;20034;-74
2022/03/29 09:36:04;;;;;;;18.67;7.57;;;;;;;17.11;42.45;100398.84;5009938;28;20608;-74
2022/03/29 09:38:31;;;;;;;15.60;7.65;;;;;;;16.93;41.88;100361.28;5010341;28;20084;-74
2022/03/29 09:41:01;;;;;;;10.82;7.18;;;;;;;17.22;41.79;100386.75;5010260;28;20030;-74
2022/03/29 09:43:29;;;;;;;11.38;6.78;;;;;;;17.26;41.74;100383.31;5010170;28;20496;-72
2022/03/29 09:45:58;;;;;;;10.32;6.22;;;;;;;17.29;41.66;100375.50;5010145;28;20117;-73
2022/03/29 09:48:33;;;;;;;9.63;6.27;;;;;;;17.20;42.41;100382.41;5010025;28;20073;-74
2022/03/29 09:51:08;;;;;;;11.55;6.72;;;;;;;17.17;42.34;100371.91;5009821;28;20324;-72
2022/03/29 09:53:34;;;;;;;12.65;7.15;;;;;;;17.18;42.25;100364.09;5018730;28;20050;-74
2022/03/29 09:56:01;;;;;;;9.02;6.47;;;;;;;17.14;41.82;100357.13;5032736;28;20083;-74
2022/03/29 09:58:27;;;;;;;10.50;7.07;;;;;;;17.25;42.65;100359.81;5032395;28;20030;-74
2022/03/29 10:00:55;;;;;;;12.75;6.85;;;;;;;17.28;42.51;100358.13;5032543;28;20017;-74
2022/03/29 10:03:23;;;;;;;10.27;6.65;;;;;;;17.25;44.59;100345.03;5032223;28;20030;-72
2022/03/29 10:05:49;;;;;;;11.30;6.68;;;;;;;17.26;42.67;100338.09;5032203;28;20029;-72
2022/03/29 10:11:06;;;;;;;13.63;7.45;;;;;;;17.40;41.83;100343.41;5032463;28;20092;-71
2022/03/29 10:13:32;;;;;;;9.77;6.63;;;;;;;17.51;40.04;100336.50;5032006;28;20033;-74
2022/03/29 10:16:00;;;;;;;9.32;6.30;;;;;;;17.50;42.15;100326.94;5032197;28;20044;-75
2022/03/29 10:18:27;;;;;;;9.00;6.15;;;;;;;17.57;41.33;100326.13;5031896;28;20030;-71
2022/03/29 10:20:54;;;;;;;12.30;6.75;;;;;;;17.49;41.21;100321.72;5031775;28;20029;-74
2022/03/29 10:23:23;;;;;;;9.55;6.43;;;;;;;17.57;40.11;100318.28;5031976;28;20036;-74
2022/03/29 10:25:51;;;;;;;12.67;7.03;;;;;;;17.66;40.51;100322.69;5031853;28;20030;-73
2022/03/29 10:28:17;;;;;;;8.68;6.05;;;;;;;17.70;40.68;100313.13;5031588;28;20640;-75
2022/03/29 10:30:43;;;;;;;9.82;6.35;;;;;;;17.76;39.91;100314.03;5031583;28;20033;-71
2022/03/29 10:33:18;;;;;;;11.43;6.82;;;;;;;17.70;40.64;100308.78;5031399;28;20481;-74
2022/03/29 10:35:59;;;;;;;10.50;6.60;;;;;;;17.74;41.24;100294.84;5031719;28;20040;-75
2022/03/29 10:38:42;;;;;;;10.20;5.80;;;;;;;17.70;42.40;100294.84;5019136;28;20040;-71
2022/03/29 10:41:28;;;;;;;10.05;5.93;;;;;;;17.76;42.03;100297.50;5011886;28;20036;-71
2022/03/29 10:44:04;;;;;;;9.35;6.15;;;;;;;17.52;40.51;100259.97;4969941;28;20134;-75
2022/03/29 10:46:41;;;;;;;9.45;5.55;;;;;;;17.72;41.62;100272.22;4970248;28;20053;-72
2022/03/29 10:52:35;;;;;;;9.43;6.38;;;;;;;18.05;39.53;100270.66;5214778;23;20073;-74
2022/03/29 10:55:33;;;;;;;11.50;6.10;;;;;;;18.22;40.20;100255.88;5027746;28;20504;-73
2022/03/29 10:58:09;;;;;;;11.60;6.55;;;;;;;18.42;38.34;100244.59;4999214;28;20041;-74
2022/03/29 11:00:36;;;;;;;7.95;5.00;;;;;;;18.31;37.53;100220.19;5000999;28;20248;-74
2022/03/29 11:03:15;;;;;;;10.60;6.35;;;;;;;18.72;38.10;100242.88;4984639;28;20041;-73
2022/03/29 11:06:04;;;;;;;11.70;6.43;;;;;;;19.07;36.99;100239.38;5007119;28;20030;-74
2022/03/29 11:08:30;;;;;;;12.27;6.00;;;;;;;19.44;37.76;100235.78;5008850;28;20073;-73
2022/03/29 11:10:58;;;;;;;11.68;6.68;;;;;;;19.73;35.11;100239.16;5008895;28;20115;-73
2022/03/29 11:13:31;;;;;;;11.85;6.85;;;;;;;19.98;33.71;100220.72;5008631;28;20050;-73
2022/03/29 11:16:01;;;;;;;8.25;5.70;;;;;;;19.91;33.63;100212.91;5007379;28;20033;-73
2022/03/29 11:18:32;;;;;;;10.63;6.95;;;;;;;20.05;33.48;100224.19;5008089;28;20045;-74
2022/03/29 11:21:02;;;;;;;12.00;6.78;;;;;;;20.27;34.43;100203.09;4992047;28;20088;-74
2022/03/29 11:23:40;;;;;;;11.82;6.40;;;;;;;20.56;34.52;100196.72;5008431;28;20140;-73
2022/03/29 11:26:16;;;;;;;12.32;6.32;;;;;;;20.66;37.55;100190.50;5008501;28;20092;-73
2022/03/29 11:28:52;;;;;;;11.40;6.20;;;;;;;20.65;35.96;100188.78;4975501;28;20061;-74
2022/03/29 11:31:19;;;;;;;9.43;6.00;;;;;;;20.59;36.10;100170.50;5008373;28;20037;-74
2022/03/29 11:33:49;;;;;;;12.23;6.70;;;;;;;20.68;34.76;100167.78;5009718;28;20033;-74
2022/03/29 11:36:15;;;;;;;9.90;5.57;;;;;;;20.67;35.24;100166.03;5010797;28;20052;-72